Rechercher aéroport 
image banner adimage banner adimage banner ad
image banner ad

5PN4 - Mahon

Situé à Hatboro, United States

ICAO - 5PN4, IATA -

Données fournies par Airmate  

Information générale

Coordonnées: N40°9'16" W75°4'31"
Élévation : 235 feet MSL.
Variation magnétique : -12° East
Voir autres Aéroports à Pennsylvania

Données opérationnelles

Special qualification required
Heure actuelle UTC:
Heure actuelle locale:
Météo à : KPNE - Northeast Philadelphia ( 10 km )
METAR: KPNE 131854Z VRB05KT 10SM BKN036 BKN044 OVC055 25/17 A2991 RMK AO2 SLP129 T02500172
TAF: KPNE 131728Z 1318/1418 20005KT P6SM BKN045 FM132300 16004KT P6SM BKN045 FM140500 17004KT P6SM -SHRA OVC025 FM140900 15004KT 4SM -SHRA BR OVC015 FM141200 19005KT P6SM BKN010
Voir NOTAMs / SUP AIP / TFR affectant cet aéroport [VIEW]
Fréquences de communication: [VIEW]

Pistes:

Coordonnées de l'aéroport

Adresse: Hatboro United States

Vue satellite de 5PN4